createdAt,value
2023-03-10T00:00:01.871Z,3.85
2023-03-10T00:03:05.107Z,3.66
2023-03-10T00:06:08.280Z,3.83
2023-03-10T00:09:10.643Z,3.79
2023-03-10T00:12:12.754Z,3.76
2023-03-10T00:15:14.764Z,3.69
2023-03-10T00:18:19.142Z,3.61
2023-03-10T00:21:23.693Z,3.54
2023-03-10T00:24:25.826Z,3.43
2023-03-10T00:27:27.624Z,3.23
2023-03-10T00:30:30.672Z,3.02
2023-03-10T00:33:38.590Z,2.93
2023-03-10T00:36:41.544Z,2.97
2023-03-10T00:39:43.348Z,2.92
2023-03-10T00:42:48.124Z,2.93
2023-03-10T00:45:49.976Z,3.17
2023-03-10T00:48:53.784Z,3.36
2023-03-10T00:51:55.563Z,3.18
2023-03-10T00:54:57.354Z,3.21
2023-03-10T00:58:01.122Z,3.17
2023-03-10T01:01:11.048Z,3.04
2023-03-10T01:04:16.288Z,2.99
2023-03-10T01:07:18.254Z,3.00
2023-03-10T01:10:20.428Z,2.78
2023-03-10T01:13:22.288Z,2.69
2023-03-10T01:16:26.904Z,2.83
2023-03-10T01:19:31.043Z,2.98
2023-03-10T01:22:35.320Z,3.10
2023-03-10T01:25:37.296Z,3.16
2023-03-10T01:28:39.343Z,3.02
2023-03-10T01:31:41.154Z,2.89
2023-03-10T01:34:44.473Z,2.84
2023-03-10T01:37:46.400Z,3.02
2023-03-10T01:40:51.340Z,3.09
2023-03-10T01:43:54.239Z,3.23
2023-03-10T01:46:56.587Z,3.32
2023-03-10T01:50:00.759Z,3.30
2023-03-10T01:53:03.358Z,3.24
2023-03-10T01:56:06.865Z,3.08
2023-03-10T01:59:10.085Z,2.92
2023-03-10T02:02:14.436Z,3.04
2023-03-10T02:05:18.182Z,3.04
2023-03-10T02:08:23.433Z,2.86
2023-03-10T02:11:25.628Z,2.67
2023-03-10T02:14:27.798Z,2.70
2023-03-10T02:17:32.403Z,2.76
2023-03-10T02:20:40.880Z,2.77
2023-03-10T02:24:00.414Z,2.75
2023-03-10T02:27:11.079Z,2.68
2023-03-10T02:30:16.451Z,2.48
2023-03-10T02:33:22.050Z,2.52
2023-03-10T02:36:24.671Z,2.44
2023-03-10T02:39:26.940Z,2.40
2023-03-10T02:42:35.156Z,2.32
2023-03-10T02:45:39.414Z,2.30
2023-03-10T02:48:42.191Z,2.15
2023-03-10T02:51:46.060Z,2.18
2023-03-10T02:54:51.317Z,2.12
2023-03-10T02:57:54.432Z,2.05
2023-03-10T03:00:56.504Z,2.03
2023-03-10T03:03:58.915Z,2.21
2023-03-10T03:07:00.677Z,2.45
2023-03-10T03:10:02.596Z,2.47
2023-03-10T03:13:06.503Z,2.44
2023-03-10T03:16:09.678Z,2.35
2023-03-10T03:19:11.587Z,2.13
2023-03-10T03:22:13.603Z,2.32
2023-03-10T03:25:17.187Z,2.46
2023-03-10T03:28:20.338Z,2.28
2023-03-10T03:31:24.248Z,2.10
2023-03-10T03:34:26.105Z,1.95
2023-03-10T03:37:27.940Z,1.84
2023-03-10T03:40:32.125Z,2.06
2023-03-10T03:43:35.370Z,2.37
2023-03-10T03:46:37.241Z,2.48
2023-03-10T03:49:39.504Z,2.46
2023-03-10T03:52:42.292Z,2.31
2023-03-10T03:55:44.118Z,1.99
2023-03-10T03:58:47.259Z,1.93
2023-03-10T04:01:49.087Z,2.06
2023-03-10T04:04:52.624Z,2.24
2023-03-10T04:07:54.479Z,2.37
2023-03-10T04:10:56.262Z,1.83
2023-03-10T04:14:00.779Z,2.02
2023-03-10T04:17:03.430Z,2.10
2023-03-10T04:20:08.539Z,2.01
2023-03-10T04:23:10.501Z,2.08
2023-03-10T04:26:12.342Z,2.20
2023-03-10T04:29:15.760Z,2.28
2023-03-10T04:32:17.645Z,2.36
2023-03-10T04:35:19.589Z,2.45
2023-03-10T04:38:21.465Z,2.57
2023-03-10T04:41:23.242Z,2.61
2023-03-10T04:44:31.164Z,2.62
2023-03-10T04:47:33.404Z,2.55
2023-03-10T04:50:35.183Z,2.48
2023-03-10T04:53:37.429Z,2.34
2023-03-10T04:56:39.250Z,1.91
2023-03-10T04:59:42.412Z,1.38
2023-03-10T05:02:44.216Z,1.49
2023-03-10T05:05:45.998Z,1.39
2023-03-10T05:08:47.803Z,1.47
2023-03-10T05:11:49.575Z,1.37
2023-03-10T05:14:52.738Z,1.31
2023-03-10T05:17:54.545Z,1.30
2023-03-10T05:20:57.915Z,1.42
2023-03-10T05:23:59.694Z,1.62
2023-03-10T05:27:01.590Z,1.75
2023-03-10T05:30:06.655Z,1.64
2023-03-10T05:33:08.522Z,1.45
2023-03-10T05:36:12.191Z,1.31
2023-03-10T05:39:14.029Z,1.36
2023-03-10T05:42:15.821Z,1.33
2023-03-10T05:45:19.058Z,1.58
2023-03-10T05:48:20.842Z,1.50
2023-03-10T05:51:23.174Z,1.32
2023-03-10T05:54:24.978Z,1.38
2023-03-10T05:57:27.174Z,1.65
2023-03-10T06:00:30.650Z,1.71
2023-03-10T06:03:32.560Z,1.64
2023-03-10T06:06:34.606Z,1.90
2023-03-10T06:09:36.418Z,2.00
2023-03-10T06:12:38.290Z,2.18
2023-03-10T06:15:41.440Z,2.35
2023-03-10T06:18:43.506Z,2.28
2023-03-10T06:21:45.447Z,2.42
2023-03-10T06:24:47.299Z,2.38
2023-03-10T06:27:49.103Z,2.37
2023-03-10T06:30:55.898Z,2.53
2023-03-10T06:33:58.554Z,2.59
2023-03-10T06:37:00.320Z,2.77
2023-03-10T06:40:02.176Z,2.75
2023-03-10T06:43:04.013Z,2.90
2023-03-10T06:46:10.462Z,3.01
2023-03-10T06:49:12.369Z,3.16
2023-03-10T06:52:14.223Z,3.35
2023-03-10T06:55:16.118Z,3.46
2023-03-10T06:58:17.924Z,3.57
2023-03-10T07:01:24.254Z,3.71
2023-03-10T07:04:26.147Z,3.87
2023-03-10T07:07:27.971Z,4.10
2023-03-10T07:10:29.830Z,4.17
2023-03-10T07:13:31.662Z,4.73
2023-03-10T07:16:34.854Z,4.86
2023-03-10T07:19:37.359Z,4.84
2023-03-10T07:22:39.145Z,4.77
2023-03-10T07:25:41.055Z,4.79
2023-03-10T07:28:42.882Z,4.81
2023-03-10T07:31:46.048Z,4.86
2023-03-10T07:34:47.834Z,5.02
2023-03-10T07:37:49.628Z,4.97
2023-03-10T07:40:51.445Z,5.00
2023-03-10T07:43:54.486Z,5.02
2023-03-10T07:46:57.673Z,5.14
2023-03-10T07:49:59.449Z,5.29
2023-03-10T07:53:01.335Z,5.62
2023-03-10T07:56:05.142Z,5.89
2023-03-10T07:59:06.954Z,6.14
2023-03-10T08:02:12.713Z,6.38
2023-03-10T08:05:14.540Z,6.47
2023-03-10T08:08:16.476Z,6.62
2023-03-10T08:11:19.246Z,6.68
2023-03-10T08:14:21.194Z,6.69
2023-03-10T08:17:24.511Z,6.85
2023-03-10T08:20:26.372Z,6.86
2023-03-10T08:23:28.218Z,6.79
2023-03-10T08:26:30.038Z,6.84
2023-03-10T08:29:32.147Z,6.85
2023-03-10T08:32:35.343Z,6.83
2023-03-10T08:35:38.283Z,6.85
2023-03-10T08:38:41.124Z,6.74
2023-03-10T08:41:45.484Z,6.68
2023-03-10T08:44:47.234Z,6.65
2023-03-10T08:47:50.410Z,6.54
2023-03-10T08:50:52.500Z,6.66
2023-03-10T08:53:54.743Z,6.62
2023-03-10T08:56:56.523Z,6.60
2023-03-10T08:59:58.345Z,6.63
2023-03-10T09:03:01.590Z,6.60
2023-03-10T09:06:03.693Z,6.55
2023-03-10T09:09:07.556Z,6.48
2023-03-10T09:12:09.754Z,6.52
2023-03-10T09:15:11.817Z,6.57
2023-03-10T09:18:16.221Z,6.55
2023-03-10T09:21:19.476Z,6.51
2023-03-10T09:24:21.349Z,6.51
2023-03-10T09:27:23.118Z,6.54
2023-03-10T09:30:25.814Z,6.67
2023-03-10T09:33:32.011Z,6.65
2023-03-10T09:36:34.623Z,6.59
2023-03-10T09:39:36.524Z,6.73
2023-03-10T09:42:40.803Z,6.67
2023-03-10T09:45:53.275Z,6.62
2023-03-10T09:49:04.983Z,6.63
2023-03-10T09:52:21.240Z,6.63
2023-03-10T09:55:27.613Z,6.65
2023-03-10T09:58:33.673Z,6.72
2023-03-10T10:01:35.920Z,6.75
2023-03-10T10:04:41.972Z,6.79
2023-03-10T10:07:48.323Z,6.84
2023-03-10T10:10:54.321Z,6.90
2023-03-10T10:14:22.202Z,6.96
2023-03-10T10:17:50.848Z,7.05
2023-03-10T10:21:00.664Z,7.09
2023-03-10T10:24:02.449Z,7.20
2023-03-10T10:27:04.249Z,7.23
2023-03-10T10:30:27.169Z,7.28
2023-03-10T10:33:29.255Z,7.38
2023-03-10T10:36:34.471Z,7.48
2023-03-10T10:39:42.987Z,7.53
2023-03-10T10:42:52.570Z,7.58
2023-03-10T10:45:55.924Z,7.79
2023-03-10T10:49:04.640Z,7.83
2023-03-10T10:52:20.851Z,8.02
2023-03-10T10:55:27.091Z,8.16
2023-03-10T10:58:31.824Z,8.33
2023-03-10T11:01:49.572Z,8.46
2023-03-10T11:04:51.342Z,8.71
2023-03-10T11:07:54.460Z,8.72
2023-03-10T11:11:01.277Z,8.93
2023-03-10T11:14:29.325Z,8.98
2023-03-10T11:17:37.801Z,9.04
2023-03-10T11:20:51.048Z,9.08
2023-03-10T11:24:03.943Z,9.12
2023-03-10T11:27:12.997Z,9.16
2023-03-10T11:30:17.841Z,9.21
2023-03-10T11:33:28.022Z,9.29
2023-03-10T11:36:49.601Z,9.30
2023-03-10T11:40:13.581Z,9.36
2023-03-10T11:43:27.909Z,9.58
2023-03-10T11:46:35.492Z,9.81
2023-03-10T11:49:39.037Z,9.96
2023-03-10T11:52:42.191Z,10.25
2023-03-10T11:55:45.825Z,10.25
2023-03-10T11:58:51.913Z,10.34
2023-03-10T12:01:59.187Z,10.47
2023-03-10T12:05:05.445Z,10.51
2023-03-10T12:08:07.631Z,10.53
2023-03-10T12:11:16.830Z,10.54
2023-03-10T12:14:19.403Z,10.56
2023-03-10T12:17:21.390Z,10.59
2023-03-10T12:20:26.435Z,10.63
2023-03-10T12:23:40.154Z,10.66
2023-03-10T12:27:01.933Z,10.67
2023-03-10T12:30:49.660Z,10.75
2023-03-10T12:34:08.025Z,10.74
2023-03-10T12:37:11.494Z,10.70
2023-03-10T12:40:47.466Z,10.73
2023-03-10T12:43:58.612Z,10.75
2023-03-10T12:47:11.536Z,10.74
2023-03-10T12:50:26.932Z,10.70
2023-03-10T12:53:32.817Z,10.62
2023-03-10T12:56:42.100Z,10.62
2023-03-10T12:59:49.183Z,10.49
2023-03-10T13:02:53.753Z,10.60
2023-03-10T13:06:03.683Z,9.52
2023-03-10T13:09:17.815Z,9.08
2023-03-10T13:12:24.173Z,8.78
2023-03-10T13:15:27.823Z,8.44
2023-03-10T13:18:30.575Z,8.33
2023-03-10T13:21:37.017Z,8.13
2023-03-10T13:24:38.787Z,8.18
2023-03-10T13:27:40.642Z,8.26
2023-03-10T13:30:42.467Z,8.28
2023-03-10T13:33:52.860Z,8.35
2023-03-10T13:37:04.629Z,8.41
2023-03-10T13:40:08.651Z,8.45
2023-03-10T13:43:27.131Z,8.48
2023-03-10T13:46:31.717Z,8.56
2023-03-10T13:49:36.015Z,8.73
2023-03-10T13:52:52.520Z,8.92
2023-03-10T13:55:54.361Z,9.10
2023-03-10T13:58:57.963Z,9.28
2023-03-10T14:02:01.328Z,9.23
2023-03-10T14:05:04.364Z,9.41
2023-03-10T14:08:17.100Z,9.58
2023-03-10T14:11:33.440Z,9.73
2023-03-10T14:14:36.820Z,9.67
2023-03-10T14:17:38.628Z,9.75
2023-03-10T14:20:41.790Z,9.74
2023-03-10T14:23:45.094Z,9.87
2023-03-10T14:26:47.403Z,9.78
2023-03-10T14:29:50.900Z,9.63
2023-03-10T14:32:53.438Z,9.50
2023-03-10T14:35:55.511Z,9.49
2023-03-10T14:38:58.997Z,9.69
2023-03-10T14:42:01.947Z,9.85
2023-03-10T14:45:07.438Z,10.01
2023-03-10T14:48:13.440Z,10.14
2023-03-10T14:51:29.044Z,10.32
2023-03-10T14:54:37.830Z,10.39
2023-03-10T14:57:41.294Z,10.41
2023-03-10T15:00:43.771Z,10.34
2023-03-10T15:03:45.939Z,10.17
2023-03-10T15:06:48.193Z,10.02
2023-03-10T15:10:01.911Z,9.97
2023-03-10T15:13:12.231Z,10.06
2023-03-10T15:16:15.124Z,10.09
2023-03-10T15:19:20.803Z,10.27
2023-03-10T15:22:24.007Z,10.51
2023-03-10T15:25:27.461Z,10.63
2023-03-10T15:28:29.316Z,10.54
2023-03-10T15:31:31.356Z,10.36
2023-03-10T15:34:33.146Z,10.22
2023-03-10T15:37:34.947Z,10.16
2023-03-10T15:40:38.328Z,10.07
2023-03-10T15:43:40.279Z,10.03
2023-03-10T15:46:42.272Z,9.94
2023-03-10T15:49:44.098Z,9.96
2023-03-10T15:52:46.992Z,9.91
2023-03-10T15:55:50.347Z,9.90
2023-03-10T15:58:52.180Z,9.88
2023-03-10T16:01:54.142Z,9.79
2023-03-10T16:04:55.958Z,9.72
2023-03-10T16:07:57.790Z,9.73
2023-03-10T16:11:00.942Z,9.61
2023-03-10T16:14:03.295Z,9.51
2023-03-10T16:17:05.228Z,9.40
2023-03-10T16:20:08.898Z,9.37
2023-03-10T16:23:10.668Z,9.15
2023-03-10T16:26:16.499Z,9.15
2023-03-10T16:29:18.322Z,9.03
2023-03-10T16:32:20.666Z,8.99
2023-03-10T16:35:22.537Z,9.02
2023-03-10T16:38:24.671Z,9.02
2023-03-10T16:41:29.724Z,8.95
2023-03-10T16:44:31.909Z,8.89
2023-03-10T16:47:34.182Z,8.88
2023-03-10T16:50:36.733Z,8.91
2023-03-10T16:53:38.960Z,8.92
2023-03-10T16:56:45.619Z,8.86
2023-03-10T16:59:48.349Z,8.66
2023-03-10T17:02:51.111Z,8.43
2023-03-10T17:05:53.229Z,8.23
2023-03-10T17:08:56.082Z,8.11
2023-03-10T17:11:59.716Z,7.80
2023-03-10T17:15:02.012Z,7.67
2023-03-10T17:18:05.069Z,7.56
2023-03-10T17:21:12.768Z,7.50
2023-03-10T17:24:16.159Z,7.28
2023-03-10T17:27:19.540Z,7.19
2023-03-10T17:30:21.518Z,7.16
2023-03-10T17:33:24.432Z,7.02
2023-03-10T17:36:27.626Z,7.03
2023-03-10T17:39:29.879Z,6.97
2023-03-10T17:42:34.042Z,6.97
2023-03-10T17:45:36.179Z,6.88
2023-03-10T17:48:38.935Z,6.72
2023-03-10T17:51:42.109Z,6.73
2023-03-10T17:54:44.618Z,6.62
2023-03-10T17:57:48.429Z,6.64
2023-03-10T18:00:50.911Z,6.70
2023-03-10T18:03:52.993Z,6.61
2023-03-10T18:06:55.485Z,6.68
2023-03-10T18:09:58.304Z,6.61
2023-03-10T18:13:01.993Z,6.65
2023-03-10T18:16:04.643Z,6.73
2023-03-10T18:19:10.304Z,6.72
2023-03-10T18:22:13.180Z,6.70
2023-03-10T18:25:15.272Z,6.68
2023-03-10T18:28:20.568Z,6.64
2023-03-10T18:31:25.107Z,6.61
2023-03-10T18:34:27.606Z,6.57
2023-03-10T18:37:30.666Z,6.50
2023-03-10T18:40:34.569Z,6.61
2023-03-10T18:43:41.887Z,6.68
2023-03-10T18:46:44.978Z,6.69
2023-03-10T18:49:47.854Z,6.64
2023-03-10T18:52:50.426Z,6.61
2023-03-10T18:55:54.147Z,6.63
2023-03-10T18:58:58.451Z,6.50
2023-03-10T19:02:01.461Z,6.48
2023-03-10T19:05:05.036Z,6.44
2023-03-10T19:08:08.121Z,6.52
2023-03-10T19:11:11.049Z,6.50
2023-03-10T19:14:16.004Z,6.48
2023-03-10T19:17:18.876Z,6.47
2023-03-10T19:20:22.006Z,6.47
2023-03-10T19:23:24.507Z,6.38
2023-03-10T19:26:30.667Z,6.43
2023-03-10T19:29:49.442Z,6.30
2023-03-10T19:32:52.671Z,6.24
2023-03-10T19:36:01.222Z,6.28
2023-03-10T19:39:04.076Z,6.24
2023-03-10T19:42:07.297Z,6.33
2023-03-10T19:45:13.785Z,6.29
2023-03-10T19:48:17.279Z,6.26
2023-03-10T19:51:22.936Z,6.18
2023-03-10T19:54:25.230Z,6.19
2023-03-10T19:57:28.174Z,6.17
2023-03-10T20:00:31.829Z,6.11
2023-03-10T20:03:34.965Z,6.16
2023-03-10T20:06:37.968Z,6.03
2023-03-10T20:09:40.701Z,6.07
2023-03-10T20:12:43.978Z,6.03
2023-03-10T20:15:47.828Z,6.02
2023-03-10T20:18:51.302Z,6.11
2023-03-10T20:21:54.001Z,6.03
2023-03-10T20:24:57.170Z,6.04
2023-03-10T20:28:00.092Z,6.04
2023-03-10T20:31:06.174Z,6.02
2023-03-10T20:34:16.840Z,6.07
2023-03-10T20:37:19.471Z,6.09
2023-03-10T20:40:24.284Z,6.06
2023-03-10T20:43:27.217Z,6.02
2023-03-10T20:46:31.693Z,5.94
2023-03-10T20:49:34.785Z,5.90
2023-03-10T20:52:38.646Z,5.93
2023-03-10T20:55:42.413Z,5.87
2023-03-10T20:58:45.151Z,5.90
2023-03-10T21:01:49.440Z,5.88
2023-03-10T21:04:52.877Z,5.91
2023-03-10T21:07:55.841Z,5.95
2023-03-10T21:10:59.796Z,5.91
2023-03-10T21:14:02.406Z,5.88
2023-03-10T21:17:06.972Z,5.72
2023-03-10T21:20:10.873Z,5.69
2023-03-10T21:23:12.909Z,5.71
2023-03-10T21:26:16.682Z,5.71
2023-03-10T21:29:18.939Z,5.58
2023-03-10T21:32:23.588Z,5.66
2023-03-10T21:35:28.807Z,5.69
2023-03-10T21:38:30.746Z,5.73
2023-03-10T21:41:33.626Z,5.71
2023-03-10T21:44:35.880Z,5.68
2023-03-10T21:47:39.098Z,5.75
2023-03-10T21:50:41.171Z,5.74
2023-03-10T21:53:43.626Z,5.72
2023-03-10T21:56:45.474Z,5.71
2023-03-10T21:59:47.351Z,5.64
2023-03-10T22:02:52.112Z,5.63
2023-03-10T22:05:54.090Z,5.70
2023-03-10T22:08:55.907Z,5.66
2023-03-10T22:11:57.721Z,5.62
2023-03-10T22:14:59.860Z,5.67
2023-03-10T22:18:03.243Z,5.65
2023-03-10T22:21:05.492Z,5.63
2023-03-10T22:24:07.340Z,5.64
2023-03-10T22:27:09.168Z,5.69
2023-03-10T22:30:11.943Z,5.59
2023-03-10T22:33:15.111Z,5.62
2023-03-10T22:36:16.865Z,5.64
2023-03-10T22:39:18.726Z,5.61
2023-03-10T22:42:20.511Z,5.55
2023-03-10T22:45:24.277Z,5.48
2023-03-10T22:48:27.460Z,5.42
2023-03-10T22:51:29.226Z,5.38
2023-03-10T22:54:31.022Z,5.39
2023-03-10T22:57:32.775Z,4.83
2023-03-10T23:00:35.026Z,4.59
2023-03-10T23:03:38.253Z,4.33
2023-03-10T23:06:40.055Z,4.16
2023-03-10T23:09:41.830Z,3.99
2023-03-10T23:12:43.735Z,3.78
2023-03-10T23:15:45.818Z,3.60
2023-03-10T23:18:49.054Z,3.58
2023-03-10T23:21:50.893Z,3.51
2023-03-10T23:24:52.893Z,3.50
2023-03-10T23:27:55.220Z,3.45
2023-03-10T23:30:57.072Z,3.45
2023-03-10T23:34:00.271Z,3.49
2023-03-10T23:37:02.059Z,3.50
2023-03-10T23:40:05.119Z,3.51
2023-03-10T23:43:07.492Z,3.50
2023-03-10T23:46:09.372Z,3.54
2023-03-10T23:49:12.561Z,3.54
2023-03-10T23:52:14.343Z,3.49
2023-03-10T23:55:20.023Z,3.56
2023-03-10T23:58:21.769Z,3.56
